createdAt,value
2023-04-13T00:00:00.136Z,984.43
2023-04-13T00:05:00.137Z,984.6
2023-04-13T00:10:00.175Z,984.65
2023-04-13T00:15:00.141Z,984.59
2023-04-13T00:20:00.157Z,984.77
2023-04-13T00:25:00.127Z,984.74
2023-04-13T00:30:00.165Z,984.84
2023-04-13T00:35:00.137Z,984.9
2023-04-13T00:40:00.161Z,984.98
2023-04-13T00:45:00.153Z,985.27
2023-04-13T00:50:00.124Z,985.21
2023-04-13T00:55:00.135Z,985.29
2023-04-13T01:00:00.201Z,985.3
2023-04-13T01:05:00.150Z,985.35
2023-04-13T01:10:00.301Z,985.41
2023-04-13T01:15:00.141Z,985.43
2023-04-13T01:20:00.110Z,985.37
2023-04-13T01:25:00.144Z,985.31
2023-04-13T01:30:00.172Z,985.35
2023-04-13T01:35:00.158Z,985.44
2023-04-13T01:40:00.141Z,985.41
2023-04-13T01:45:00.123Z,985.49
2023-04-13T01:50:00.128Z,985.64
2023-04-13T01:55:00.149Z,985.65
2023-04-13T02:00:00.209Z,985.5
2023-04-13T02:05:00.101Z,985.72
2023-04-13T02:10:00.193Z,985.52
2023-04-13T02:15:00.163Z,985.66
2023-04-13T02:20:00.146Z,985.47
2023-04-13T02:25:00.146Z,985.6
2023-04-13T02:30:00.165Z,985.64
2023-04-13T02:35:00.106Z,985.64
2023-04-13T02:40:00.171Z,985.57
2023-04-13T02:45:00.125Z,985.56
2023-04-13T02:50:00.158Z,985.62
2023-04-13T02:55:00.105Z,985.58
2023-04-13T03:00:00.127Z,985.53
2023-04-13T03:05:00.228Z,985.51
2023-04-13T03:10:00.114Z,985.57
2023-04-13T03:15:00.117Z,985.6
2023-04-13T03:20:00.157Z,985.52
2023-04-13T03:25:00.125Z,985.53
2023-04-13T03:30:00.169Z,985.01
2023-04-13T03:35:00.135Z,985.06
2023-04-13T03:40:00.149Z,985.08
2023-04-13T03:45:00.109Z,985.2
2023-04-13T03:50:00.196Z,985.27
2023-04-13T03:55:00.144Z,985.25
2023-04-13T04:00:00.203Z,985.05
2023-04-13T04:05:00.207Z,984.93
2023-04-13T04:10:00.158Z,984.92
2023-04-13T04:15:00.138Z,984.88
2023-04-13T04:20:00.107Z,984.87
2023-04-13T04:25:00.270Z,984.91
2023-04-13T04:30:00.194Z,985.09
2023-04-13T04:35:00.136Z,985.16
2023-04-13T04:40:00.199Z,985.24
2023-04-13T04:45:00.152Z,985.4
2023-04-13T04:50:00.131Z,985.43
2023-04-13T04:55:00.116Z,985.53
2023-04-13T05:00:00.160Z,985.52
2023-04-13T05:05:00.126Z,985.71
2023-04-13T05:10:00.134Z,985.78
2023-04-13T05:15:00.119Z,985.77
2023-04-13T05:20:00.114Z,985.86
2023-04-13T05:25:00.118Z,985.93
2023-04-13T05:30:00.217Z,985.97
2023-04-13T05:35:00.136Z,985.97
2023-04-13T05:40:00.109Z,986.12
2023-04-13T05:45:00.158Z,986.13
2023-04-13T05:50:00.144Z,986.11
2023-04-13T05:55:00.141Z,986.13
2023-04-13T06:00:00.196Z,986.16
2023-04-13T06:05:00.200Z,986.11
2023-04-13T06:10:00.135Z,986.13
2023-04-13T06:15:00.124Z,986.28
2023-04-13T06:20:00.160Z,986.26
2023-04-13T06:25:00.108Z,986.11
2023-04-13T06:30:00.235Z,986.17
2023-04-13T06:35:00.129Z,986.32
2023-04-13T06:40:00.111Z,986.27
2023-04-13T06:45:00.117Z,986.26
2023-04-13T06:50:00.198Z,986.18
2023-04-13T06:55:00.136Z,986.24
2023-04-13T07:00:00.116Z,986.24
2023-04-13T07:05:00.150Z,986.21
2023-04-13T07:10:00.582Z,986.22
2023-04-13T07:15:00.144Z,986.34
2023-04-13T07:20:00.161Z,986.31
2023-04-13T07:25:00.152Z,986.28
2023-04-13T07:30:00.167Z,986.41
2023-04-13T07:35:00.126Z,986.31
2023-04-13T07:40:00.105Z,986.56
2023-04-13T07:45:00.131Z,986.56
2023-04-13T07:50:00.215Z,986.7
2023-04-13T07:55:00.134Z,986.62
2023-04-13T08:00:00.157Z,986.77
2023-04-13T08:05:00.295Z,986.76
2023-04-13T08:10:00.223Z,986.86
2023-04-13T08:15:00.124Z,986.95
2023-04-13T08:20:00.129Z,986.94
2023-04-13T08:25:00.133Z,986.87
2023-04-13T08:30:00.362Z,986.89
2023-04-13T08:35:00.157Z,986.99
2023-04-13T08:40:00.143Z,986.93
2023-04-13T08:45:00.388Z,987.12
2023-04-13T08:50:00.207Z,987.05
2023-04-13T08:55:00.123Z,987.19
2023-04-13T09:00:00.124Z,987.25
2023-04-13T09:05:00.280Z,987.36
2023-04-13T09:10:00.325Z,987.26
2023-04-13T09:15:00.141Z,987.2
2023-04-13T09:20:00.176Z,987.22
2023-04-13T09:25:00.119Z,987.25
2023-04-13T09:30:00.344Z,987.23
2023-04-13T09:35:00.209Z,987.25
2023-04-13T09:40:00.129Z,987.26
2023-04-13T09:45:00.116Z,987.35
2023-04-13T09:50:00.166Z,987.29
2023-04-13T09:55:00.169Z,987.2
2023-04-13T10:00:00.220Z,987.26
2023-04-13T10:05:00.192Z,987.34
2023-04-13T10:10:00.168Z,987.42
2023-04-13T10:15:00.160Z,987.45
2023-04-13T10:20:00.147Z,987.41
2023-04-13T10:25:00.142Z,987.48
2023-04-13T10:30:00.155Z,987.57
2023-04-13T10:35:00.133Z,987.67
2023-04-13T10:40:00.174Z,987.74
2023-04-13T10:45:00.128Z,987.72
2023-04-13T10:50:00.169Z,987.92
2023-04-13T10:55:00.118Z,987.75
2023-04-13T11:00:00.170Z,987.8
2023-04-13T11:05:00.312Z,987.99
2023-04-13T11:10:03.677Z,988.03
2023-04-13T11:15:00.132Z,987.85
2023-04-13T11:20:00.141Z,988.01
2023-04-13T11:25:00.139Z,987.88
2023-04-13T11:30:00.140Z,987.97
2023-04-13T11:35:00.158Z,988.06
2023-04-13T11:40:00.142Z,987.98
2023-04-13T11:45:00.129Z,987.99
2023-04-13T11:50:00.230Z,987.96
2023-04-13T11:55:07.675Z,988.01
2023-04-13T12:00:00.147Z,987.96
2023-04-13T12:05:00.285Z,987.88
2023-04-13T12:10:05.196Z,987.87
2023-04-13T12:20:00.711Z,987.92
2023-04-13T12:25:01.936Z,987.91
2023-04-13T12:30:00.162Z,987.88
2023-04-13T12:35:00.150Z,987.94
2023-04-13T12:40:00.195Z,987.96
2023-04-13T12:45:00.108Z,988.04
2023-04-13T12:50:00.177Z,988.03
2023-04-13T12:55:00.206Z,988.05
2023-04-13T13:00:00.211Z,988.07
2023-04-13T13:05:00.207Z,988.23
2023-04-13T13:10:00.241Z,988.27
2023-04-13T13:15:00.093Z,988.24
2023-04-13T13:20:01.256Z,988.24
2023-04-13T13:25:00.149Z,988.22
2023-04-13T13:30:00.209Z,988.27
2023-04-13T13:35:00.122Z,988.21
2023-04-13T13:40:00.144Z,988.25
2023-04-13T13:45:00.189Z,988.21
2023-04-13T13:50:00.204Z,988.27
2023-04-13T13:55:00.136Z,988.24
2023-04-13T14:00:00.234Z,988.25
2023-04-13T14:05:00.144Z,988.21
2023-04-13T14:10:00.157Z,988.21
2023-04-13T14:15:00.133Z,988.28
2023-04-13T14:20:00.121Z,988.29
2023-04-13T14:25:00.134Z,988.26
2023-04-13T14:30:00.174Z,988.34
2023-04-13T14:35:00.274Z,988.5
2023-04-13T14:40:00.174Z,988.4
2023-04-13T14:45:00.128Z,988.54
2023-04-13T14:50:00.185Z,988.35
2023-04-13T14:55:00.131Z,988.41
2023-04-13T15:00:00.176Z,988.43
2023-04-13T15:05:00.234Z,988.53
2023-04-13T15:10:00.175Z,988.56
2023-04-13T15:15:00.143Z,988.59
2023-04-13T15:20:00.162Z,988.72
2023-04-13T15:25:00.130Z,988.8
2023-04-13T15:30:00.251Z,988.8
2023-04-13T15:35:00.156Z,988.8
2023-04-13T15:40:00.176Z,988.73
2023-04-13T15:45:00.111Z,988.79
2023-04-13T15:50:00.218Z,988.86
2023-04-13T15:55:00.189Z,988.92
2023-04-13T16:00:00.133Z,988.86
2023-04-13T16:05:00.109Z,988.91
2023-04-13T16:10:00.286Z,988.89
2023-04-13T16:15:00.125Z,988.99
2023-04-13T16:20:00.171Z,988.96
2023-04-13T16:25:00.340Z,989.03
2023-04-13T16:30:00.164Z,989.02
2023-04-13T16:35:00.099Z,989.06
2023-04-13T16:40:00.126Z,988.95
2023-04-13T16:45:00.160Z,988.98
2023-04-13T16:50:00.223Z,989
2023-04-13T16:55:00.153Z,988.94
2023-04-13T17:00:00.166Z,988.92
2023-04-13T17:05:00.144Z,988.97
2023-04-13T17:10:00.220Z,988.94
2023-04-13T17:15:00.146Z,988.92
2023-04-13T17:20:00.097Z,988.87
2023-04-13T17:25:00.159Z,988.82
2023-04-13T17:30:00.197Z,988.8
2023-04-13T17:35:00.139Z,988.87
2023-04-13T17:40:00.142Z,988.9
2023-04-13T17:45:00.169Z,989.1
2023-04-13T17:50:00.152Z,989.3
2023-04-13T17:55:00.163Z,989.32
2023-04-13T18:00:00.148Z,989.55
2023-04-13T18:05:00.121Z,989.67
2023-04-13T18:10:00.193Z,989.82
2023-04-13T18:15:00.137Z,989.88
2023-04-13T18:20:00.131Z,990.05
2023-04-13T18:25:00.138Z,990.16
2023-04-13T18:30:00.185Z,990.24
2023-04-13T18:35:00.129Z,990.33
2023-04-13T18:40:00.171Z,990.42
2023-04-13T18:45:00.165Z,990.49
2023-04-13T18:50:00.213Z,990.55
2023-04-13T18:55:00.175Z,990.62
2023-04-13T19:00:00.131Z,990.56
2023-04-13T19:05:00.339Z,990.64
2023-04-13T19:10:00.193Z,990.67
2023-04-13T19:15:00.126Z,990.65
2023-04-13T19:20:00.171Z,990.55
2023-04-13T19:25:00.138Z,990.76
2023-04-13T19:30:00.200Z,990.69
2023-04-13T19:35:00.140Z,990.7
2023-04-13T19:40:00.193Z,990.69
2023-04-13T19:45:00.146Z,990.63
2023-04-13T19:50:00.256Z,990.63
2023-04-13T19:55:00.125Z,990.64
2023-04-13T20:00:00.253Z,990.64
2023-04-13T20:05:00.164Z,990.69
2023-04-13T20:10:00.161Z,990.7
2023-04-13T20:15:00.200Z,990.63
2023-04-13T20:20:00.173Z,990.66
2023-04-13T20:25:00.136Z,990.61
2023-04-13T20:30:00.180Z,991.08
2023-04-13T20:35:00.144Z,991.09
2023-04-13T20:40:00.132Z,991.07
2023-04-13T20:45:00.141Z,991.07
2023-04-13T20:50:00.273Z,991.1
2023-04-13T20:55:00.137Z,991.09
2023-04-13T21:00:00.197Z,991.09
2023-04-13T21:05:00.150Z,990.98
2023-04-13T21:10:00.234Z,991.06
2023-04-13T21:15:00.158Z,991.04
2023-04-13T21:20:00.120Z,990.96
2023-04-13T21:25:00.119Z,990.94
2023-04-13T21:30:00.200Z,990.88
2023-04-13T21:35:00.142Z,990.94
2023-04-13T21:40:00.127Z,990.93
2023-04-13T21:45:00.131Z,990.9
2023-04-13T21:50:00.183Z,990.97
2023-04-13T21:55:00.129Z,991
2023-04-13T22:00:00.160Z,991.07
2023-04-13T22:05:00.129Z,991.08
2023-04-13T22:10:00.176Z,991.04
2023-04-13T22:15:00.152Z,991.1
2023-04-13T22:20:00.157Z,991.04
2023-04-13T22:25:00.163Z,990.97
2023-04-13T22:30:00.258Z,990.76
2023-04-13T22:35:00.139Z,990.61
2023-04-13T22:40:00.156Z,990.43
2023-04-13T22:45:00.182Z,990.35
2023-04-13T22:50:00.154Z,990.24
2023-04-13T22:55:00.137Z,990.5
2023-04-13T23:00:00.173Z,990.76
2023-04-13T23:05:00.229Z,991
2023-04-13T23:10:00.151Z,990.99
2023-04-13T23:15:00.093Z,991.13
2023-04-13T23:20:00.127Z,991.19
2023-04-13T23:25:00.132Z,991.3
2023-04-13T23:30:00.171Z,991.45
2023-04-13T23:35:00.116Z,991.38
2023-04-13T23:40:00.097Z,991.35
2023-04-13T23:45:00.148Z,991.25
2023-04-13T23:50:00.202Z,991.28
2023-04-13T23:55:00.122Z,991.28
